createdAt,value
2023-04-17T00:00:22.612Z,503.00
2023-04-17T00:01:22.651Z,501.00
2023-04-17T00:02:22.866Z,501.00
2023-04-17T00:03:22.977Z,500.00
2023-04-17T00:04:22.973Z,501.00
2023-04-17T00:05:23.173Z,502.00
2023-04-17T00:06:22.897Z,503.00
2023-04-17T00:07:22.985Z,502.00
2023-04-17T00:08:22.998Z,502.00
2023-04-17T00:09:23.057Z,501.00
2023-04-17T00:10:23.117Z,501.00
2023-04-17T00:11:23.168Z,503.00
2023-04-17T00:12:23.230Z,504.00
2023-04-17T00:13:23.330Z,502.00
2023-04-17T00:14:23.329Z,503.00
2023-04-17T00:15:23.388Z,503.00
2023-04-17T00:16:23.440Z,500.00
2023-04-17T00:17:23.442Z,499.00
2023-04-17T00:18:23.471Z,501.00
2023-04-17T00:19:23.520Z,500.00
2023-04-17T00:20:23.547Z,501.00
2023-04-17T00:21:23.581Z,502.00
2023-04-17T00:22:23.606Z,502.00
2023-04-17T00:23:23.654Z,503.00
2023-04-17T00:24:23.681Z,500.00
2023-04-17T00:25:23.703Z,499.00
2023-04-17T00:26:23.734Z,500.00
2023-04-17T00:27:23.760Z,501.00
2023-04-17T00:28:23.796Z,502.00
2023-04-17T00:29:23.829Z,502.00
2023-04-17T00:30:23.807Z,501.00
2023-04-17T00:31:23.901Z,496.00
2023-04-17T00:32:23.860Z,492.00
2023-04-17T00:33:23.863Z,488.00
2023-04-17T00:34:23.884Z,486.00
2023-04-17T00:35:23.928Z,487.00
2023-04-17T00:36:23.907Z,489.00
2023-04-17T00:37:23.926Z,486.00
2023-04-17T00:38:23.966Z,486.00
2023-04-17T00:39:24.015Z,486.00
2023-04-17T00:40:24.059Z,486.00
2023-04-17T00:41:24.066Z,487.00
2023-04-17T00:42:24.119Z,488.00
2023-04-17T00:43:24.158Z,487.00
2023-04-17T00:44:24.194Z,489.00
2023-04-17T00:45:24.265Z,490.00
2023-04-17T00:46:24.322Z,490.00
2023-04-17T00:47:24.310Z,492.00
2023-04-17T00:48:24.320Z,495.00
2023-04-17T00:49:24.333Z,494.00
2023-04-17T00:50:24.432Z,490.00
2023-04-17T00:51:24.385Z,488.00
2023-04-17T00:52:24.427Z,488.00
2023-04-17T00:53:24.477Z,491.00
2023-04-17T00:54:24.506Z,491.00
2023-04-17T00:55:24.526Z,491.00
2023-04-17T00:56:24.557Z,491.00
2023-04-17T00:57:24.563Z,489.00
2023-04-17T00:58:24.587Z,486.00
2023-04-17T00:59:24.636Z,487.00
2023-04-17T01:00:24.662Z,487.00
2023-04-17T01:01:24.774Z,489.00
2023-04-17T01:02:24.846Z,487.00
2023-04-17T01:03:24.938Z,487.00
2023-04-17T01:04:24.903Z,487.00
2023-04-17T01:05:24.799Z,488.00
2023-04-17T01:06:24.807Z,490.00
2023-04-17T01:07:24.832Z,489.00
2023-04-17T01:08:24.842Z,488.00
2023-04-17T01:09:24.863Z,486.00
2023-04-17T01:10:24.885Z,490.00
2023-04-17T01:11:24.904Z,489.00
2023-04-17T01:12:25.002Z,487.00
2023-04-17T01:13:24.956Z,487.00
2023-04-17T01:14:24.966Z,486.00
2023-04-17T01:15:25.000Z,489.00
2023-04-17T01:16:25.028Z,486.00
2023-04-17T01:17:25.101Z,489.00
2023-04-17T01:18:25.090Z,486.00
2023-04-17T01:19:25.116Z,486.00
2023-04-17T01:20:25.131Z,487.00
2023-04-17T01:21:25.135Z,488.00
2023-04-17T01:22:25.152Z,488.00
2023-04-17T01:23:25.147Z,488.00
2023-04-17T01:24:25.158Z,490.00
2023-04-17T01:25:25.192Z,490.00
2023-04-17T01:26:25.216Z,488.00
2023-04-17T01:27:25.240Z,488.00
2023-04-17T01:28:25.240Z,488.00
2023-04-17T01:29:25.245Z,486.00
2023-04-17T01:30:25.285Z,489.00
2023-04-17T01:31:25.332Z,491.00
2023-04-17T01:32:25.317Z,490.00
2023-04-17T01:33:25.290Z,488.00
2023-04-17T01:34:25.264Z,488.00
2023-04-17T01:35:25.266Z,488.00
2023-04-17T01:36:25.299Z,487.00
2023-04-17T01:37:25.316Z,487.00
2023-04-17T01:38:25.323Z,486.00
2023-04-17T01:39:25.338Z,483.00
2023-04-17T01:40:25.355Z,487.00
2023-04-17T01:41:25.380Z,490.00
2023-04-17T01:42:25.387Z,491.00
2023-04-17T01:43:25.391Z,490.00
2023-04-17T01:44:25.413Z,492.00
2023-04-17T01:45:25.428Z,490.00
2023-04-17T01:46:25.476Z,487.00
2023-04-17T01:47:25.493Z,486.00
2023-04-17T01:48:25.477Z,487.00
2023-04-17T01:49:25.492Z,487.00
2023-04-17T01:50:25.475Z,488.00
2023-04-17T01:51:25.459Z,489.00
2023-04-17T01:52:25.458Z,490.00
2023-04-17T01:53:25.470Z,488.00
2023-04-17T01:54:25.492Z,488.00
2023-04-17T01:55:25.505Z,490.00
2023-04-17T01:56:25.873Z,490.00
2023-04-17T01:57:25.541Z,491.00
2023-04-17T01:58:25.561Z,491.00
2023-04-17T01:59:25.594Z,490.00
2023-04-17T02:00:25.615Z,494.00
2023-04-17T02:01:25.659Z,495.00
2023-04-17T02:02:25.761Z,496.00
2023-04-17T02:03:25.755Z,496.00
2023-04-17T02:04:25.757Z,495.00
2023-04-17T02:05:25.715Z,496.00
2023-04-17T02:06:25.695Z,496.00
2023-04-17T02:07:25.721Z,496.00
2023-04-17T02:08:25.721Z,495.00
2023-04-17T02:09:25.735Z,496.00
2023-04-17T02:10:25.729Z,495.00
2023-04-17T02:11:25.773Z,494.00
2023-04-17T02:12:25.805Z,493.00
2023-04-17T02:13:25.855Z,493.00
2023-04-17T02:14:25.882Z,494.00
2023-04-17T02:15:25.881Z,492.00
2023-04-17T02:16:25.991Z,490.00
2023-04-17T02:17:25.964Z,488.00
2023-04-17T02:18:25.896Z,490.00
2023-04-17T02:19:25.911Z,490.00
2023-04-17T02:20:25.914Z,489.00
2023-04-17T02:21:25.942Z,491.00
2023-04-17T02:22:25.929Z,492.00
2023-04-17T02:23:25.927Z,489.00
2023-04-17T02:24:25.933Z,487.00
2023-04-17T02:25:25.927Z,489.00
2023-04-17T02:26:25.924Z,493.00
2023-04-17T02:27:25.924Z,491.00
2023-04-17T02:28:25.922Z,489.00
2023-04-17T02:29:25.926Z,490.00
2023-04-17T02:30:25.912Z,489.00
2023-04-17T02:31:25.970Z,487.00
2023-04-17T02:32:25.925Z,489.00
2023-04-17T02:33:25.905Z,489.00
2023-04-17T02:34:25.899Z,486.00
2023-04-17T02:35:25.903Z,485.00
2023-04-17T02:36:25.895Z,485.00
2023-04-17T02:37:25.917Z,485.00
2023-04-17T02:38:25.886Z,484.00
2023-04-17T02:39:25.893Z,485.00
2023-04-17T02:40:25.893Z,483.00
2023-04-17T02:41:25.884Z,481.00
2023-04-17T02:42:25.883Z,481.00
2023-04-17T02:43:25.921Z,478.00
2023-04-17T02:44:25.871Z,477.00
2023-04-17T02:45:25.866Z,480.00
2023-04-17T02:46:25.911Z,480.00
2023-04-17T02:47:25.888Z,481.00
2023-04-17T02:48:25.893Z,483.00
2023-04-17T02:49:25.860Z,483.00
2023-04-17T02:50:25.856Z,485.00
2023-04-17T02:51:25.868Z,483.00
2023-04-17T02:52:25.872Z,482.00
2023-04-17T02:53:25.890Z,482.00
2023-04-17T02:54:25.882Z,482.00
2023-04-17T02:55:25.871Z,484.00
2023-04-17T02:56:25.859Z,487.00
2023-04-17T02:57:25.850Z,490.00
2023-04-17T02:58:25.846Z,490.00
2023-04-17T02:59:25.840Z,489.00
2023-04-17T03:00:25.839Z,491.00
2023-04-17T03:01:25.946Z,490.00
2023-04-17T03:02:25.976Z,489.00
2023-04-17T03:03:26.088Z,487.00
2023-04-17T03:04:25.836Z,488.00
2023-04-17T03:05:25.847Z,489.00
2023-04-17T03:06:25.848Z,489.00
2023-04-17T03:07:25.846Z,489.00
2023-04-17T03:08:25.837Z,489.00
2023-04-17T03:09:25.852Z,487.00
2023-04-17T03:10:25.836Z,485.00
2023-04-17T03:11:25.838Z,486.00
2023-04-17T03:12:25.852Z,487.00
2023-04-17T03:13:25.847Z,487.00
2023-04-17T03:14:25.859Z,488.00
2023-04-17T03:15:25.844Z,490.00
2023-04-17T03:16:25.852Z,489.00
2023-04-17T03:17:25.882Z,489.00
2023-04-17T03:18:25.853Z,491.00
2023-04-17T03:19:25.851Z,491.00
2023-04-17T03:20:25.855Z,488.00
2023-04-17T03:21:25.847Z,487.00
2023-04-17T03:22:25.843Z,486.00
2023-04-17T03:23:25.874Z,487.00
2023-04-17T03:24:25.857Z,491.00
2023-04-17T03:25:25.884Z,494.00
2023-04-17T03:26:25.868Z,495.00
2023-04-17T03:27:25.877Z,496.00
2023-04-17T03:28:25.873Z,495.00
2023-04-17T03:29:25.867Z,497.00
2023-04-17T03:30:25.874Z,498.00
2023-04-17T03:31:25.928Z,499.00
2023-04-17T03:32:25.917Z,499.00
2023-04-17T03:33:25.880Z,500.00
2023-04-17T03:34:25.885Z,499.00
2023-04-17T03:35:25.880Z,497.00
2023-04-17T03:36:25.869Z,496.00
2023-04-17T03:37:25.866Z,497.00
2023-04-17T03:38:25.874Z,497.00
2023-04-17T03:39:25.857Z,496.00
2023-04-17T03:40:25.861Z,498.00
2023-04-17T03:41:25.881Z,499.00
2023-04-17T03:42:25.851Z,499.00
2023-04-17T03:43:25.859Z,494.00
2023-04-17T03:44:25.840Z,493.00
2023-04-17T03:45:25.834Z,494.00
2023-04-17T03:46:25.850Z,494.00
2023-04-17T03:47:25.864Z,495.00
2023-04-17T03:48:25.848Z,495.00
2023-04-17T03:49:25.837Z,496.00
2023-04-17T03:50:25.825Z,494.00
2023-04-17T03:51:25.810Z,497.00
2023-04-17T03:52:25.803Z,497.00
2023-04-17T03:53:25.808Z,499.00
2023-04-17T03:54:25.804Z,499.00
2023-04-17T03:55:25.798Z,496.00
2023-04-17T03:56:25.841Z,497.00
2023-04-17T03:57:25.815Z,500.00
2023-04-17T03:58:25.814Z,497.00
2023-04-17T03:59:25.803Z,498.00
2023-04-17T04:00:25.806Z,498.00
2023-04-17T04:01:25.803Z,498.00
2023-04-17T04:02:25.994Z,499.00
2023-04-17T04:03:25.916Z,503.00
2023-04-17T04:04:26.067Z,504.00
2023-04-17T04:05:25.845Z,503.00
2023-04-17T04:06:25.802Z,501.00
2023-04-17T04:07:25.791Z,500.00
2023-04-17T04:08:25.789Z,499.00
2023-04-17T04:09:25.801Z,500.00
2023-04-17T04:10:25.780Z,498.00
2023-04-17T04:11:25.770Z,496.00
2023-04-17T04:12:25.771Z,497.00
2023-04-17T04:13:25.791Z,497.00
2023-04-17T04:14:25.763Z,497.00
2023-04-17T04:15:25.759Z,498.00
2023-04-17T04:16:25.772Z,499.00
2023-04-17T04:17:25.832Z,497.00
2023-04-17T04:18:25.732Z,497.00
2023-04-17T04:19:25.725Z,497.00
2023-04-17T04:20:25.739Z,497.00
2023-04-17T04:21:25.730Z,499.00
2023-04-17T04:22:25.729Z,500.00
2023-04-17T04:23:25.729Z,501.00
2023-04-17T04:24:25.741Z,502.00
2023-04-17T04:25:25.729Z,504.00
2023-04-17T04:26:25.717Z,505.00
2023-04-17T04:27:25.729Z,505.00
2023-04-17T04:28:25.702Z,505.00
2023-04-17T04:29:25.737Z,505.00
2023-04-17T04:30:25.693Z,505.00
2023-04-17T04:31:25.755Z,503.00
2023-04-17T04:32:25.804Z,504.00
2023-04-17T04:33:25.716Z,501.00
2023-04-17T04:34:25.711Z,499.00
2023-04-17T04:35:25.704Z,499.00
2023-04-17T04:36:25.709Z,499.00
2023-04-17T04:37:25.711Z,498.00
2023-04-17T04:38:25.704Z,497.00
2023-04-17T04:39:25.714Z,497.00
2023-04-17T04:40:25.697Z,495.00
2023-04-17T04:41:25.718Z,496.00
2023-04-17T04:42:25.704Z,496.00
2023-04-17T04:43:25.702Z,497.00
2023-04-17T04:44:25.703Z,497.00
2023-04-17T04:45:25.773Z,497.00
2023-04-17T04:46:25.801Z,495.00
2023-04-17T04:47:25.746Z,493.00
2023-04-17T04:48:25.700Z,492.00
2023-04-17T04:49:25.705Z,494.00
2023-04-17T04:50:25.699Z,494.00
2023-04-17T04:51:25.703Z,495.00
2023-04-17T04:52:25.726Z,496.00
2023-04-17T04:53:25.715Z,497.00
2023-04-17T04:54:25.708Z,497.00
2023-04-17T04:55:25.705Z,496.00
2023-04-17T04:56:25.704Z,495.00
2023-04-17T04:57:25.699Z,497.00
2023-04-17T04:58:25.698Z,495.00
2023-04-17T04:59:25.692Z,494.00
2023-04-17T05:00:25.693Z,498.00
2023-04-17T05:01:25.863Z,496.00
2023-04-17T05:02:25.775Z,495.00
2023-04-17T05:03:25.824Z,496.00
2023-04-17T05:04:25.765Z,496.00
2023-04-17T05:05:25.695Z,496.00
2023-04-17T05:06:25.942Z,498.00
2023-04-17T05:07:25.700Z,500.00
2023-04-17T05:08:25.711Z,502.00
2023-04-17T05:09:25.702Z,501.00
2023-04-17T05:10:25.703Z,503.00
2023-04-17T05:11:25.699Z,500.00
2023-04-17T05:12:25.691Z,501.00
2023-04-17T05:13:25.683Z,499.00
2023-04-17T05:14:25.680Z,497.00
2023-04-17T05:15:25.678Z,495.00
2023-04-17T05:16:25.721Z,498.00
2023-04-17T05:17:25.724Z,501.00
2023-04-17T05:18:25.968Z,502.00
2023-04-17T05:20:24.947Z,503.00
2023-04-17T05:21:25.955Z,503.00
2023-04-17T05:22:25.643Z,504.00
2023-04-17T05:23:25.640Z,506.00
2023-04-17T05:24:25.643Z,510.00
2023-04-17T05:25:25.658Z,516.00
2023-04-17T05:26:25.645Z,522.00
2023-04-17T05:27:25.953Z,528.00
2023-04-17T05:28:25.635Z,531.00
2023-04-17T05:29:25.629Z,530.00
2023-04-17T05:30:25.652Z,533.00
2023-04-17T05:31:25.982Z,534.00
2023-04-17T05:32:25.655Z,535.00
2023-04-17T05:33:25.702Z,535.00
2023-04-17T05:34:25.700Z,535.00
2023-04-17T05:35:25.707Z,534.00
2023-04-17T05:36:25.727Z,537.00
2023-04-17T05:37:25.734Z,542.00
2023-04-17T05:38:25.750Z,544.00
2023-04-17T05:39:25.773Z,544.00
2023-04-17T05:40:25.801Z,545.00
2023-04-17T05:41:25.827Z,550.00
2023-04-17T05:42:25.965Z,551.00
2023-04-17T05:43:25.904Z,550.00
2023-04-17T05:44:25.883Z,552.00
2023-04-17T05:45:25.948Z,560.00
2023-04-17T05:46:26.027Z,567.00
2023-04-17T05:47:25.975Z,571.00
2023-04-17T05:48:26.960Z,573.00
2023-04-17T05:49:26.048Z,572.00
2023-04-17T05:50:26.032Z,571.00
2023-04-17T05:51:26.063Z,575.00
2023-04-17T05:52:26.084Z,582.00
2023-04-17T05:53:26.481Z,589.00
2023-04-17T05:54:29.444Z,598.00
2023-04-17T05:55:26.202Z,608.00
2023-04-17T05:56:26.223Z,622.00
2023-04-17T05:57:27.335Z,634.00
2023-04-17T05:58:27.061Z,645.00
2023-04-17T05:59:26.357Z,647.00
2023-04-17T06:00:26.441Z,650.00
2023-04-17T06:01:26.728Z,651.00
2023-04-17T06:02:26.642Z,648.00
2023-04-17T06:03:27.570Z,650.00
2023-04-17T06:04:26.805Z,680.00
2023-04-17T06:05:27.534Z,681.00
2023-04-17T06:06:26.489Z,675.00
2023-04-17T06:07:26.307Z,668.00
2023-04-17T06:08:26.327Z,663.00
2023-04-17T06:09:26.406Z,659.00
2023-04-17T06:10:26.341Z,654.00
2023-04-17T06:11:26.466Z,653.00
2023-04-17T06:12:26.357Z,655.00
2023-04-17T06:13:26.372Z,654.00
2023-04-17T06:14:26.464Z,652.00
2023-04-17T06:15:26.385Z,653.00
2023-04-17T06:16:26.383Z,651.00
2023-04-17T06:17:26.395Z,651.00
2023-04-17T06:18:26.473Z,650.00
2023-04-17T06:19:26.417Z,649.00
2023-04-17T06:20:26.376Z,647.00
2023-04-17T06:21:26.500Z,646.00
2023-04-17T06:22:26.386Z,642.00
2023-04-17T06:23:26.480Z,639.00
2023-04-17T06:24:26.355Z,640.00
2023-04-17T06:25:26.398Z,639.00
2023-04-17T06:26:26.480Z,639.00
2023-04-17T06:27:26.389Z,639.00
2023-04-17T06:28:26.489Z,640.00
2023-04-17T06:29:26.399Z,640.00
2023-04-17T06:30:26.509Z,641.00
2023-04-17T06:31:26.480Z,639.00
2023-04-17T06:32:26.470Z,637.00
2023-04-17T06:33:27.003Z,636.00
2023-04-17T06:34:26.470Z,634.00
2023-04-17T06:35:26.491Z,633.00
2023-04-17T06:36:26.528Z,632.00
2023-04-17T06:37:26.611Z,634.00
2023-04-17T06:38:26.978Z,635.00
2023-04-17T06:39:26.627Z,636.00
2023-04-17T06:40:26.714Z,638.00
2023-04-17T06:41:26.642Z,635.00
2023-04-17T06:42:26.624Z,637.00
2023-04-17T06:43:26.981Z,634.00
2023-04-17T06:44:26.633Z,635.00
2023-04-17T06:45:26.627Z,636.00
2023-04-17T06:46:27.726Z,633.00
2023-04-17T06:47:26.691Z,632.00
2023-04-17T06:48:27.010Z,633.00
2023-04-17T06:49:26.672Z,636.00
2023-04-17T06:50:27.035Z,636.00
2023-04-17T06:51:26.665Z,633.00
2023-04-17T06:52:26.673Z,633.00
2023-04-17T06:53:26.679Z,635.00
2023-04-17T06:54:27.115Z,636.00
2023-04-17T06:55:26.992Z,636.00
2023-04-17T06:56:26.652Z,638.00
2023-04-17T06:57:27.001Z,636.00
2023-04-17T06:58:26.698Z,636.00
2023-04-17T06:59:26.645Z,635.00
2023-04-17T07:00:27.229Z,635.00
2023-04-17T07:01:26.681Z,633.00
2023-04-17T07:02:26.855Z,631.00
2023-04-17T07:03:27.095Z,632.00
2023-04-17T07:04:26.696Z,633.00
2023-04-17T07:05:26.679Z,632.00
2023-04-17T07:06:26.681Z,630.00
2023-04-17T07:07:26.664Z,631.00
2023-04-17T07:08:26.994Z,630.00
2023-04-17T07:09:26.748Z,628.00
2023-04-17T07:10:26.762Z,626.00
2023-04-17T07:11:26.757Z,626.00
2023-04-17T07:12:26.776Z,626.00
2023-04-17T07:13:26.988Z,627.00
2023-04-17T07:14:26.827Z,627.00
2023-04-17T07:15:26.921Z,628.00
2023-04-17T07:16:27.059Z,627.00
2023-04-17T07:17:27.004Z,627.00
2023-04-17T07:18:26.982Z,627.00
2023-04-17T07:19:26.944Z,628.00
2023-04-17T07:20:26.976Z,628.00
2023-04-17T07:21:26.999Z,630.00
2023-04-17T07:22:27.503Z,629.00
2023-04-17T07:23:27.491Z,628.00
2023-04-17T07:24:27.130Z,628.00
2023-04-17T07:25:27.216Z,628.00
2023-04-17T07:26:27.231Z,628.00
2023-04-17T07:27:27.521Z,629.00
2023-04-17T07:28:27.518Z,632.00
2023-04-17T07:29:27.285Z,632.00
2023-04-17T07:30:27.281Z,630.00
2023-04-17T07:31:27.333Z,629.00
2023-04-17T07:32:27.524Z,627.00
2023-04-17T07:33:27.319Z,631.00
2023-04-17T07:34:27.508Z,629.00
2023-04-17T07:35:27.251Z,627.00
2023-04-17T07:36:27.247Z,633.00
2023-04-17T07:37:27.264Z,660.00
2023-04-17T07:38:27.288Z,692.00
2023-04-17T07:39:27.515Z,712.00
2023-04-17T07:40:27.368Z,732.00
2023-04-17T07:41:27.562Z,748.00
2023-04-17T07:42:27.513Z,763.00
2023-04-17T07:43:27.572Z,777.00
2023-04-17T07:44:28.002Z,803.00
2023-04-17T07:45:27.909Z,826.00
2023-04-17T07:46:27.722Z,839.00
2023-04-17T07:47:27.764Z,852.00
2023-04-17T07:48:27.779Z,875.00
2023-04-17T07:49:28.010Z,899.00
2023-04-17T07:50:27.884Z,909.00
2023-04-17T07:51:27.945Z,954.00
2023-04-17T07:52:28.991Z,958.00
2023-04-17T07:53:28.507Z,999.00
2023-04-17T07:54:28.088Z,1022.00
2023-04-17T07:55:28.126Z,1040.00
2023-04-17T07:56:28.251Z,1061.00
2023-04-17T07:57:28.538Z,1081.00
2023-04-17T07:58:28.278Z,1097.00
2023-04-17T07:59:28.283Z,1104.00
2023-04-17T08:00:28.322Z,1128.00
2023-04-17T08:01:28.341Z,1151.00
2023-04-17T08:02:28.598Z,1166.00
2023-04-17T08:03:28.628Z,1173.00
2023-04-17T08:04:28.703Z,1184.00
2023-04-17T08:05:28.544Z,1199.00
2023-04-17T08:06:28.502Z,1210.00
2023-04-17T08:07:29.005Z,1227.00
2023-04-17T08:08:28.590Z,1248.00
2023-04-17T08:09:29.026Z,1268.00
2023-04-17T08:10:28.646Z,1283.00
2023-04-17T08:11:28.664Z,1296.00
2023-04-17T08:12:28.640Z,1306.00
2023-04-17T08:13:31.999Z,1328.00
2023-04-17T08:14:29.012Z,1343.00
2023-04-17T08:15:28.599Z,1351.00
2023-04-17T08:16:28.662Z,1361.00
2023-04-17T08:17:28.582Z,1378.00
2023-04-17T08:18:28.560Z,1397.00
2023-04-17T08:19:29.011Z,1407.00
2023-04-17T08:20:28.556Z,1275.00
2023-04-17T08:21:28.521Z,1096.00
2023-04-17T08:22:28.519Z,1045.00
2023-04-17T08:23:28.482Z,1028.00
2023-04-17T08:24:29.465Z,1000.00
2023-04-17T08:25:28.449Z,989.00
2023-04-17T08:26:28.434Z,979.00
2023-04-17T08:27:28.432Z,990.00
2023-04-17T08:28:28.396Z,976.00
2023-04-17T08:29:28.403Z,906.00
2023-04-17T08:30:28.360Z,912.00
2023-04-17T08:31:28.408Z,898.00
2023-04-17T08:32:28.353Z,889.00
2023-04-17T08:33:28.328Z,876.00
2023-04-17T08:34:28.521Z,874.00
2023-04-17T08:35:28.311Z,870.00
2023-04-17T08:36:28.305Z,872.00
2023-04-17T08:37:28.332Z,871.00
2023-04-17T08:38:28.517Z,862.00
2023-04-17T08:39:28.351Z,861.00
2023-04-17T08:40:28.313Z,855.00
2023-04-17T08:41:28.328Z,851.00
2023-04-17T08:42:28.524Z,844.00
2023-04-17T08:43:28.360Z,848.00
2023-04-17T08:44:28.386Z,864.00
2023-04-17T08:45:28.468Z,919.00
2023-04-17T08:46:28.566Z,945.00
2023-04-17T08:47:28.574Z,1024.00
2023-04-17T08:48:28.465Z,1046.00
2023-04-17T08:49:28.562Z,1062.00
2023-04-17T08:50:28.517Z,1075.00
2023-04-17T08:51:28.465Z,1089.00
2023-04-17T08:52:28.461Z,1112.00
2023-04-17T08:53:28.467Z,1132.00
2023-04-17T08:54:28.534Z,1154.00
2023-04-17T08:55:28.498Z,1171.00
2023-04-17T08:56:28.529Z,1180.00
2023-04-17T08:57:28.586Z,1194.00
2023-04-17T08:58:28.825Z,1214.00
2023-04-17T08:59:29.024Z,1232.00
2023-04-17T09:00:29.055Z,1245.00
2023-04-17T09:01:28.805Z,1255.00
2023-04-17T09:02:28.964Z,1266.00
2023-04-17T09:03:29.051Z,1282.00
2023-04-17T09:04:29.060Z,1297.00
2023-04-17T09:05:29.029Z,1311.00
2023-04-17T09:06:28.961Z,1321.00
2023-04-17T09:07:29.030Z,1335.00
2023-04-17T09:08:29.016Z,1348.00
2023-04-17T09:09:29.050Z,1359.00
2023-04-17T09:10:29.088Z,1375.00
2023-04-17T09:11:29.106Z,1409.00
2023-04-17T09:12:29.129Z,1426.00
2023-04-17T09:13:29.154Z,1432.00
2023-04-17T09:14:29.175Z,1445.00
2023-04-17T09:15:29.541Z,1453.00
2023-04-17T09:16:29.286Z,1465.00
2023-04-17T09:17:29.287Z,1470.00
2023-04-17T09:18:29.222Z,1484.00
2023-04-17T09:19:29.262Z,1499.00
2023-04-17T09:20:29.247Z,1519.00
2023-04-17T09:21:29.289Z,1546.00
2023-04-17T09:22:29.534Z,1566.00
2023-04-17T09:23:29.300Z,1571.00
2023-04-17T09:24:29.332Z,1561.00
2023-04-17T09:25:29.577Z,1561.00
2023-04-17T09:26:29.334Z,1565.00
2023-04-17T09:27:29.536Z,1447.00
2023-04-17T09:28:29.366Z,1500.00
2023-04-17T09:29:29.367Z,1518.00
2023-04-17T09:30:29.537Z,1529.00
2023-04-17T09:31:29.464Z,1536.00
2023-04-17T09:32:29.461Z,1538.00
2023-04-17T09:33:29.464Z,1538.00
2023-04-17T09:34:29.452Z,1536.00
2023-04-17T09:35:29.546Z,1538.00
2023-04-17T09:36:29.486Z,1541.00
2023-04-17T09:37:29.498Z,1546.00
2023-04-17T09:38:29.519Z,1455.00
2023-04-17T09:39:29.556Z,1467.00
2023-04-17T09:40:30.043Z,1447.00
2023-04-17T09:41:29.621Z,1285.00
2023-04-17T09:42:37.060Z,1157.00
2023-04-17T09:43:29.643Z,1167.00
2023-04-17T09:44:29.629Z,1147.00
2023-04-17T09:45:30.053Z,1042.00
2023-04-17T09:46:29.635Z,1025.00
2023-04-17T09:47:29.613Z,1015.00
2023-04-17T09:48:29.580Z,993.00
2023-04-17T09:49:29.626Z,955.00
2023-04-17T09:50:30.050Z,927.00
2023-04-17T09:51:29.517Z,915.00
2023-04-17T09:52:29.492Z,870.00
2023-04-17T09:53:30.010Z,855.00
2023-04-17T09:54:29.574Z,846.00
2023-04-17T09:55:29.438Z,829.00
2023-04-17T09:56:29.425Z,856.00
2023-04-17T09:57:29.489Z,838.00
2023-04-17T09:58:29.396Z,849.00
2023-04-17T09:59:29.376Z,919.00
2023-04-17T10:00:29.636Z,880.00
2023-04-17T10:01:29.379Z,863.00
2023-04-17T10:02:29.656Z,880.00
2023-04-17T10:03:29.549Z,872.00
2023-04-17T10:04:29.376Z,872.00
2023-04-17T10:05:29.399Z,849.00
2023-04-17T10:06:29.306Z,853.00
2023-04-17T10:07:29.560Z,845.00
2023-04-17T10:08:29.308Z,834.00
2023-04-17T10:09:29.286Z,813.00
2023-04-17T10:10:29.277Z,811.00
2023-04-17T10:11:29.267Z,802.00
2023-04-17T10:12:29.561Z,798.00
2023-04-17T10:13:29.262Z,796.00
2023-04-17T10:14:29.261Z,791.00
2023-04-17T10:15:29.242Z,869.00
2023-04-17T10:16:29.272Z,824.00
2023-04-17T10:17:29.654Z,828.00
2023-04-17T10:18:29.227Z,818.00
2023-04-17T10:19:29.221Z,804.00
2023-04-17T10:20:29.272Z,830.00
2023-04-17T10:21:29.417Z,837.00
2023-04-17T10:22:29.578Z,845.00
2023-04-17T10:23:29.440Z,851.00
2023-04-17T10:24:29.498Z,865.00
2023-04-17T10:25:29.565Z,869.00
2023-04-17T10:26:30.052Z,881.00
2023-04-17T10:27:29.620Z,895.00
2023-04-17T10:28:29.632Z,904.00
2023-04-17T10:29:29.661Z,912.00
2023-04-17T10:30:29.693Z,905.00
2023-04-17T10:31:30.097Z,904.00
2023-04-17T10:32:29.819Z,898.00
2023-04-17T10:33:29.738Z,886.00
2023-04-17T10:34:30.060Z,872.00
2023-04-17T10:35:29.769Z,864.00
2023-04-17T10:36:29.772Z,860.00
2023-04-17T10:37:30.162Z,862.00
2023-04-17T10:38:29.780Z,861.00
2023-04-17T10:39:29.773Z,867.00
2023-04-17T10:40:29.782Z,868.00
2023-04-17T10:41:29.778Z,872.00
2023-04-17T10:42:29.789Z,874.00
2023-04-17T10:43:29.808Z,876.00
2023-04-17T10:44:29.796Z,874.00
2023-04-17T10:45:30.106Z,873.00
2023-04-17T10:46:30.154Z,873.00
2023-04-17T10:47:29.830Z,872.00
2023-04-17T10:48:29.839Z,872.00
2023-04-17T10:49:29.791Z,878.00
2023-04-17T10:50:29.792Z,878.00
2023-04-17T10:51:30.066Z,878.00
2023-04-17T10:52:29.805Z,876.00
2023-04-17T10:53:30.144Z,875.00
2023-04-17T10:54:29.880Z,869.00
2023-04-17T10:55:29.912Z,870.00
2023-04-17T10:56:29.952Z,871.00
2023-04-17T10:57:30.099Z,869.00
2023-04-17T10:58:31.562Z,871.00
2023-04-17T10:59:30.275Z,869.00
2023-04-17T11:00:29.975Z,872.00
2023-04-17T11:01:30.133Z,872.00
2023-04-17T11:02:30.032Z,869.00
2023-04-17T11:03:30.165Z,869.00
2023-04-17T11:04:29.984Z,868.00
2023-04-17T11:05:30.086Z,869.00
2023-04-17T11:06:30.074Z,869.00
2023-04-17T11:07:30.569Z,869.00
2023-04-17T11:08:29.928Z,868.00
2023-04-17T11:09:29.928Z,867.00
2023-04-17T11:10:29.918Z,869.00
2023-04-17T11:11:43.353Z,869.00
2023-04-17T11:12:29.906Z,871.00
2023-04-17T11:13:29.869Z,871.00
2023-04-17T11:14:29.859Z,872.00
2023-04-17T11:15:30.074Z,868.00
2023-04-17T11:16:29.874Z,869.00
2023-04-17T11:17:29.905Z,868.00
2023-04-17T11:18:29.820Z,868.00
2023-04-17T11:19:30.108Z,867.00
2023-04-17T11:20:29.794Z,868.00
2023-04-17T11:21:29.787Z,872.00
2023-04-17T11:22:29.758Z,870.00
2023-04-17T11:23:29.760Z,866.00
2023-04-17T11:24:30.170Z,868.00
2023-04-17T11:25:29.772Z,869.00
2023-04-17T11:26:29.741Z,867.00
2023-04-17T11:27:29.736Z,867.00
2023-04-17T11:28:30.155Z,866.00
2023-04-17T11:29:30.145Z,864.00
2023-04-17T11:30:29.700Z,863.00
2023-04-17T11:31:29.736Z,858.00
2023-04-17T11:32:29.718Z,858.00
2023-04-17T11:33:29.691Z,855.00
2023-04-17T11:34:30.454Z,859.00
2023-04-17T11:35:29.722Z,858.00
2023-04-17T11:36:29.789Z,856.00
2023-04-17T11:37:29.847Z,858.00
2023-04-17T11:38:30.091Z,856.00
2023-04-17T11:39:30.006Z,855.00
2023-04-17T11:40:30.022Z,854.00
2023-04-17T11:41:30.122Z,851.00
2023-04-17T11:42:30.142Z,847.00
2023-04-17T11:43:30.588Z,846.00
2023-04-17T11:44:30.292Z,847.00
2023-04-17T11:45:30.338Z,846.00
2023-04-17T11:46:30.417Z,846.00
2023-04-17T11:47:30.471Z,850.00
2023-04-17T11:48:30.587Z,851.00
2023-04-17T11:49:30.608Z,854.00
2023-04-17T11:50:30.616Z,854.00
2023-04-17T11:51:30.718Z,856.00
2023-04-17T11:52:30.768Z,855.00
2023-04-17T11:53:30.824Z,851.00
2023-04-17T11:54:31.133Z,852.00
2023-04-17T11:55:30.937Z,852.00
2023-04-17T11:56:31.057Z,849.00
2023-04-17T11:57:31.052Z,850.00
2023-04-17T11:58:31.094Z,848.00
2023-04-17T11:59:31.595Z,846.00
2023-04-17T12:00:31.203Z,842.00
2023-04-17T12:01:31.592Z,840.00
2023-04-17T12:02:31.474Z,842.00
2023-04-17T12:03:31.648Z,843.00
2023-04-17T12:04:31.573Z,842.00
2023-04-17T12:05:31.522Z,844.00
2023-04-17T12:06:31.601Z,844.00
2023-04-17T12:07:31.582Z,843.00
2023-04-17T12:08:31.624Z,843.00
2023-04-17T12:09:31.853Z,840.00
2023-04-17T12:10:31.740Z,839.00
2023-04-17T12:11:32.095Z,836.00
2023-04-17T12:12:31.849Z,837.00
2023-04-17T12:13:31.937Z,835.00
2023-04-17T12:14:31.966Z,834.00
2023-04-17T12:15:32.028Z,834.00
2023-04-17T12:16:32.172Z,833.00
2023-04-17T12:17:32.151Z,833.00
2023-04-17T12:18:32.186Z,834.00
2023-04-17T12:19:32.305Z,834.00
2023-04-17T12:20:32.289Z,835.00
2023-04-17T12:21:32.350Z,835.00
2023-04-17T12:22:32.391Z,839.00
2023-04-17T12:23:32.460Z,838.00
2023-04-17T12:24:32.512Z,840.00
2023-04-17T12:25:32.559Z,836.00
2023-04-17T12:26:32.610Z,833.00